Time;durP1;ratioP1;P1;durP2;ratioP2;P2;SDS_P1;SDS_P2;PMS_P1;PMS_P2;Temp;Humidity;BMP_temperature;BMP_pressure;BME280_temperature;BME280_humidity;BME280_pressure;Samples;Min_cycle;Max_cycle;Signal;HPM_P1;HPM_P2
2022/03/26 00:00:34;;;;;;;67.38;40.67;;;;;;;-0.31;70.84;99443.03;6276436;22;20054;-80
2022/03/26 00:03:13;;;;;;;65.50;41.25;;;;;;;-0.14;70.30;99433.72;6277796;22;20027;-80
2022/03/26 00:05:39;;;;;;;69.97;40.67;;;;;;;-0.05;70.27;99436.00;6250889;22;20016;-80
2022/03/26 00:08:06;;;;;;;67.93;38.38;;;;;;;0.01;69.46;99427.06;6225868;22;20452;-79
2022/03/26 00:10:32;;;;;;;63.80;38.67;;;;;;;0.07;69.31;99432.94;6239237;22;20381;-79
2022/03/26 00:12:58;;;;;;;65.50;36.90;;;;;;;0.14;69.37;99434.44;6279240;22;20352;-79
2022/03/26 00:15:26;;;;;;;70.20;36.35;;;;;;;0.16;69.31;99424.75;6277847;22;20011;-79
2022/03/26 00:17:52;;;;;;;75.07;38.90;;;;;;;0.24;69.07;99422.69;6276837;22;20047;-81
2022/03/26 00:20:18;;;;;;;52.67;31.17;;;;;;;0.15;68.78;99409.00;6261294;22;20020;-81
2022/03/26 00:22:44;;;;;;;61.75;31.63;;;;;;;0.00;68.63;99407.81;6298305;22;20034;-81
2022/03/26 00:25:13;;;;;;;63.10;31.92;;;;;;;-0.03;68.92;99414.03;6296190;22;20047;-80
2022/03/26 00:27:39;;;;;;;63.08;30.38;;;;;;;-0.06;69.45;99414.13;6294424;22;20019;-80
2022/03/26 00:30:06;;;;;;;64.97;29.83;;;;;;;-0.04;69.50;99421.94;6291016;22;20020;-81
2022/03/26 00:32:32;;;;;;;57.50;29.05;;;;;;;-0.01;69.53;99419.22;6254071;22;20018;-80
2022/03/26 00:34:58;;;;;;;64.50;27.10;;;;;;;-0.20;69.73;99415.53;6276126;22;20102;-81
2022/03/26 00:37:24;;;;;;;55.42;30.17;;;;;;;-0.34;70.28;99414.25;6278042;22;20383;-80
2022/03/26 00:39:51;;;;;;;54.30;29.08;;;;;;;-0.30;70.32;99410.63;6277669;22;20020;-80
2022/03/26 00:42:17;;;;;;;56.67;28.75;;;;;;;-0.16;70.30;99411.88;6249235;22;20062;-82
2022/03/26 00:44:42;;;;;;;50.08;27.70;;;;;;;-0.06;70.50;99410.66;6275684;22;20022;-82
2022/03/26 00:47:09;;;;;;;48.90;27.27;;;;;;;-0.05;70.06;99409.72;6276020;22;20024;-80
2022/03/26 00:49:36;;;;;;;60.47;28.05;;;;;;;-0.02;69.79;99404.38;6278855;22;20359;-80
2022/03/26 00:52:03;;;;;;;57.92;30.02;;;;;;;-0.01;69.77;99401.69;6279302;22;20439;-81
2022/03/26 00:54:30;;;;;;;73.65;31.10;;;;;;;0.03;69.99;99394.53;6224056;22;20024;-81
2022/03/26 00:56:56;;;;;;;71.72;32.85;;;;;;;0.06;69.99;99399.69;6274892;22;20024;-82
2022/03/26 00:59:22;;;;;;;68.60;30.67;;;;;;;0.08;69.77;99400.50;6225089;22;20043;-81
2022/03/26 01:01:48;;;;;;;84.15;34.47;;;;;;;0.18;69.75;99393.13;6275904;22;20019;-81
2022/03/26 01:04:15;;;;;;;102.68;35.28;;;;;;;0.28;69.80;99393.66;6250100;22;20515;-81
2022/03/26 01:06:40;;;;;;;84.65;36.38;;;;;;;0.32;69.50;99392.63;6277820;22;20020;-80
2022/03/26 01:09:07;;;;;;;103.47;39.20;;;;;;;0.32;69.67;99382.97;6276245;22;20351;-80
2022/03/26 01:11:34;;;;;;;98.78;39.28;;;;;;;0.43;69.10;99385.19;6275718;22;20016;-80
2022/03/26 01:14:01;;;;;;;103.57;40.08;;;;;;;0.48;69.01;99386.72;6249914;22;20486;-80
2022/03/26 01:16:27;;;;;;;108.53;40.33;;;;;;;0.55;69.15;99379.44;6275529;22;20019;-81
2022/03/26 01:18:55;;;;;;;141.18;42.85;;;;;;;0.62;69.09;99386.19;6275415;22;20028;-79
2022/03/26 01:21:21;;;;;;;160.65;46.15;;;;;;;0.67;68.74;99384.22;6249603;22;20451;-80
2022/03/26 01:23:48;;;;;;;178.43;47.70;;;;;;;0.73;68.42;99384.00;6275509;22;20022;-81
2022/03/26 01:26:15;;;;;;;159.10;49.70;;;;;;;0.77;68.55;99389.16;6277601;22;20012;-80
2022/03/26 01:28:41;;;;;;;183.15;51.50;;;;;;;0.65;68.03;99386.06;6275361;22;20018;-81
2022/03/26 01:31:07;;;;;;;200.93;52.90;;;;;;;0.46;68.55;99395.59;6224602;22;20328;-81
2022/03/26 01:33:34;;;;;;;168.35;52.35;;;;;;;0.25;69.69;99389.34;6249290;22;20030;-81
2022/03/26 01:35:59;;;;;;;165.52;50.70;;;;;;;0.18;69.62;99375.56;6275075;22;20344;-80
2022/03/26 01:38:26;;;;;;;162.38;48.25;;;;;;;0.32;69.25;99384.72;6275216;22;20031;-82
2022/03/26 01:40:51;;;;;;;159.82;50.25;;;;;;;0.44;69.26;99373.75;6275368;22;20022;-82
2022/03/26 01:43:17;;;;;;;134.52;48.78;;;;;;;0.56;69.04;99370.63;6277006;22;20019;-83
2022/03/26 01:45:44;;;;;;;182.85;48.65;;;;;;;0.58;68.33;99362.69;6276797;22;20016;-81
2022/03/26 01:48:10;;;;;;;144.25;46.60;;;;;;;0.70;68.41;99368.31;6275228;22;20019;-80
2022/03/26 01:50:36;;;;;;;132.73;43.80;;;;;;;0.70;67.93;99373.59;6275711;22;20019;-81
2022/03/26 01:53:03;;;;;;;99.78;38.90;;;;;;;0.51;67.87;99377.84;6276523;22;20016;-84
2022/03/26 01:55:29;;;;;;;111.53;42.85;;;;;;;0.48;67.87;99367.44;6275164;22;20019;-81
2022/03/26 01:57:55;;;;;;;102.25;39.97;;;;;;;0.52;67.57;99366.41;6274832;22;20030;-83
2022/03/26 02:00:22;;;;;;;116.45;41.33;;;;;;;0.45;67.89;99352.66;6276109;22;20097;-82
2022/03/26 02:02:48;;;;;;;118.32;42.10;;;;;;;0.51;68.11;99356.81;6276115;22;20069;-81
2022/03/26 02:05:16;;;;;;;135.98;42.80;;;;;;;0.61;67.77;99355.56;6249727;22;20015;-79
2022/03/26 02:07:44;;;;;;;144.73;43.03;;;;;;;0.66;67.70;99356.22;6276389;22;20103;-79
2022/03/26 02:10:16;;;;;;;101.80;41.83;;;;;;;0.68;67.41;99348.28;6253500;22;20042;-80
2022/03/26 02:12:42;;;;;;;134.25;44.33;;;;;;;0.59;67.23;99338.97;6284936;22;20046;-82
2022/03/26 02:15:09;;;;;;;126.20;43.88;;;;;;;0.69;67.66;99348.19;6283010;22;20087;-81
2022/03/26 02:17:36;;;;;;;107.22;41.13;;;;;;;0.67;67.42;99343.91;6281545;22;20447;-80
2022/03/26 02:20:13;;;;;;;106.30;38.20;;;;;;;0.64;67.31;99347.53;6283254;22;20016;-81
2022/03/26 02:22:40;;;;;;;115.40;39.58;;;;;;;0.64;67.33;99342.28;6251481;22;20351;-81
2022/03/26 02:25:09;;;;;;;101.88;38.65;;;;;;;0.66;67.44;99334.31;6275521;22;20047;-80
2022/03/26 02:27:35;;;;;;;99.63;40.10;;;;;;;0.62;67.08;99333.56;6276277;22;20019;-80
2022/03/26 02:30:02;;;;;;;85.63;37.60;;;;;;;0.62;67.36;99338.00;6276474;22;20023;-81
2022/03/26 02:32:29;;;;;;;88.57;35.85;;;;;;;0.55;67.40;99337.38;6249263;22;20340;-82
2022/03/26 02:34:56;;;;;;;104.60;37.35;;;;;;;0.60;67.44;99335.44;6249370;22;20016;-79
2022/03/26 02:37:22;;;;;;;97.50;36.28;;;;;;;0.72;67.61;99334.94;6249264;22;20018;-80
2022/03/26 02:39:49;;;;;;;93.47;36.97;;;;;;;0.84;67.51;99338.84;6274968;22;20436;-79
2022/03/26 02:42:15;;;;;;;75.55;36.08;;;;;;;0.95;67.39;99336.63;6274849;22;20375;-82
2022/03/26 02:44:42;;;;;;;87.38;37.15;;;;;;;1.07;67.04;99335.25;6275846;22;20047;-80
2022/03/26 02:47:10;;;;;;;73.97;33.72;;;;;;;0.46;65.97;99337.75;6248918;22;20451;-81
2022/03/26 02:49:36;;;;;;;80.38;33.78;;;;;;;0.14;66.91;99355.56;6277996;22;20444;-80
2022/03/26 02:52:03;;;;;;;66.53;35.40;;;;;;;0.00;67.79;99352.63;6278791;22;20029;-79
2022/03/26 02:54:30;;;;;;;70.80;35.90;;;;;;;0.09;68.05;99354.91;6250755;22;20440;-84
2022/03/26 02:56:56;;;;;;;73.05;34.60;;;;;;;0.02;68.33;99352.56;6200771;22;20015;-81
2022/03/26 02:59:23;;;;;;;64.57;31.73;;;;;;;-0.18;67.62;99356.78;6225870;22;20106;-88
2022/03/26 03:01:51;;;;;;;60.10;33.00;;;;;;;-0.18;66.90;99345.41;6226875;22;20015;-76
2022/03/26 03:04:17;;;;;;;62.42;33.10;;;;;;;-0.48;68.45;99353.47;6278365;22;20027;-79
2022/03/26 03:06:43;;;;;;;72.43;36.45;;;;;;;-0.35;68.25;99349.50;6226089;22;20118;-79
2022/03/26 03:09:09;;;;;;;70.47;35.03;;;;;;;-0.17;67.91;99349.75;6251161;22;20057;-80
2022/03/26 03:11:35;;;;;;;70.72;35.63;;;;;;;-0.22;67.58;99343.81;6201301;22;20020;-81
2022/03/26 03:14:04;;;;;;;77.32;36.58;;;;;;;-0.05;67.61;99337.00;6250825;22;20025;-80
2022/03/26 03:16:30;;;;;;;69.00;35.85;;;;;;;0.24;67.65;99351.69;6226102;22;20023;-82
2022/03/26 03:18:56;;;;;;;75.53;36.25;;;;;;;0.37;66.75;99338.06;6225898;22;20012;-81
2022/03/26 03:21:22;;;;;;;83.20;38.38;;;;;;;0.47;66.48;99344.72;6251583;22;20081;-78
2022/03/26 03:23:48;;;;;;;71.80;38.92;;;;;;;0.36;66.07;99339.00;6250662;22;20474;-77
2022/03/26 03:26:15;;;;;;;71.30;39.00;;;;;;;0.25;66.22;99339.41;6277582;22;20020;-79
2022/03/26 03:28:42;;;;;;;71.43;38.40;;;;;;;0.34;66.44;99346.06;6225648;22;20019;-80
2022/03/26 03:31:09;;;;;;;73.65;38.58;;;;;;;0.52;66.49;99342.75;6226190;22;20021;-76
2022/03/26 03:33:35;;;;;;;82.35;42.47;;;;;;;0.73;66.20;99339.28;6225702;22;20016;-80
2022/03/26 03:36:01;;;;;;;78.55;40.28;;;;;;;0.66;65.88;99348.31;6277899;22;20023;-78
2022/03/26 03:38:27;;;;;;;66.28;35.13;;;;;;;0.60;65.04;99343.31;6250822;22;20031;-80
2022/03/26 03:40:53;;;;;;;66.75;36.53;;;;;;;0.49;65.31;99337.63;6250292;22;20019;-80
2022/03/26 03:43:19;;;;;;;65.43;35.88;;;;;;;0.34;65.96;99338.19;6277325;22;20016;-81
2022/03/26 03:45:45;;;;;;;79.65;39.88;;;;;;;0.46;65.91;99332.47;6200072;22;20020;-86
2022/03/26 03:48:11;;;;;;;83.53;38.63;;;;;;;0.71;65.81;99332.34;6277767;22;20061;-80
2022/03/26 03:50:37;;;;;;;65.60;38.38;;;;;;;0.89;65.72;99336.00;6251273;22;20461;-79
2022/03/26 03:53:03;;;;;;;70.75;37.83;;;;;;;1.04;65.50;99331.91;6204718;22;20015;-80
2022/03/26 03:55:29;;;;;;;65.75;38.00;;;;;;;1.23;65.24;99334.63;6234507;22;20090;-80
2022/03/26 03:57:55;;;;;;;68.63;36.35;;;;;;;1.29;64.66;99323.84;6204178;22;20024;-78
2022/03/26 04:00:21;;;;;;;68.25;37.30;;;;;;;1.37;64.08;99327.00;6250927;22;20106;-78
2022/03/26 04:02:47;;;;;;;73.75;40.25;;;;;;;1.46;64.21;99318.69;6251290;22;20153;-82
2022/03/26 04:05:13;;;;;;;63.00;37.40;;;;;;;1.52;63.75;99328.13;6225648;22;20022;-79
2022/03/26 04:07:44;;;;;;;61.65;36.58;;;;;;;1.64;63.48;99325.78;6250905;22;20347;-80
2022/03/26 04:10:11;;;;;;;63.97;37.22;;;;;;;1.77;63.31;99319.97;6225433;22;20016;-80
2022/03/26 04:12:38;;;;;;;67.05;38.78;;;;;;;1.86;63.38;99314.31;6277705;22;20165;-79
2022/03/26 04:15:06;;;;;;;69.65;38.03;;;;;;;1.85;63.37;99313.47;6224653;22;20022;-82
2022/03/26 04:17:35;;;;;;;63.67;36.22;;;;;;;1.79;62.51;99307.59;6224923;22;20016;-77
2022/03/26 04:20:03;;;;;;;76.00;38.33;;;;;;;1.77;62.66;99304.16;6277581;22;20023;-80
2022/03/26 04:22:29;;;;;;;66.77;36.97;;;;;;;1.98;63.33;99310.25;6200751;22;20422;-81
2022/03/26 04:24:56;;;;;;;66.88;36.75;;;;;;;2.17;62.47;99297.94;6200018;22;20447;-80
2022/03/26 04:27:22;;;;;;;73.90;37.38;;;;;;;2.33;61.91;99304.22;6225039;22;20022;-81
2022/03/26 04:29:49;;;;;;;68.50;35.55;;;;;;;2.47;61.85;99311.47;6250954;22;20343;-80
2022/03/26 04:32:15;;;;;;;76.63;36.80;;;;;;;2.67;61.64;99307.88;6199935;22;20454;-79
2022/03/26 04:34:41;;;;;;;64.03;36.60;;;;;;;2.88;61.14;99300.69;6225508;22;20022;-81
2022/03/26 04:37:07;;;;;;;70.72;35.72;;;;;;;2.97;60.80;99302.03;6251393;22;20055;-80
2022/03/26 04:39:34;;;;;;;66.57;35.78;;;;;;;3.09;60.51;99298.78;6226751;22;20015;-81
2022/03/26 04:42:00;;;;;;;66.85;36.70;;;;;;;3.12;59.88;99299.50;6266840;22;20026;-80
2022/03/26 04:44:26;;;;;;;69.85;36.63;;;;;;;3.15;60.00;99299.31;6276088;22;20407;-82
2022/03/26 04:46:53;;;;;;;89.65;38.60;;;;;;;3.26;59.93;99290.00;6249964;22;20032;-79
2022/03/26 04:49:19;;;;;;;90.95;36.05;;;;;;;3.46;59.88;99296.91;6249220;22;20016;-79
2022/03/26 04:51:46;;;;;;;72.80;36.92;;;;;;;3.60;59.20;99300.53;6224504;22;20075;-80
2022/03/26 04:54:12;;;;;;;61.78;37.38;;;;;;;3.60;58.70;99294.41;6277159;22;20062;-80
2022/03/26 04:56:38;;;;;;;65.43;37.72;;;;;;;3.62;58.69;99293.41;6249735;22;20016;-81
2022/03/26 04:59:04;;;;;;;72.63;37.03;;;;;;;3.71;58.71;99291.19;6224589;22;20419;-80
2022/03/26 05:01:29;;;;;;;66.18;36.35;;;;;;;3.74;58.99;99291.88;6249590;22;20027;-81
2022/03/26 05:03:55;;;;;;;56.38;36.70;;;;;;;4.01;58.33;99294.84;6275354;22;20054;-81
2022/03/26 05:06:21;;;;;;;66.68;37.45;;;;;;;4.13;57.87;99283.59;6224626;22;20459;-80
2022/03/26 05:08:48;;;;;;;56.25;36.65;;;;;;;4.22;57.97;99294.63;6277403;22;20359;-80
2022/03/26 05:11:15;;;;;;;68.72;35.97;;;;;;;4.34;57.58;99292.16;6224077;22;20098;-79
2022/03/26 05:13:41;;;;;;;65.10;36.92;;;;;;;4.29;57.14;99288.91;6249974;22;20023;-79
2022/03/26 05:16:07;;;;;;;70.22;35.47;;;;;;;4.52;57.09;99292.09;6277194;22;20098;-79
2022/03/26 05:18:35;;;;;;;58.28;34.20;;;;;;;4.68;56.25;99284.13;6251963;22;20054;-80
2022/03/26 05:21:01;;;;;;;57.53;33.97;;;;;;;4.83;56.40;99277.94;6251221;22;20068;-79
2022/03/26 05:23:28;;;;;;;52.40;33.05;;;;;;;4.98;56.14;99281.50;6279423;22;20461;-80
2022/03/26 05:25:55;;;;;;;51.67;28.80;;;;;;;5.00;55.49;99290.19;6250014;22;20053;-79
2022/03/26 05:28:21;;;;;;;43.97;26.13;;;;;;;5.17;55.08;99282.13;6224596;22;20098;-77
2022/03/26 05:30:54;;;;;;;42.03;25.88;;;;;;;5.44;54.72;99284.94;6276839;22;20024;-78
2022/03/26 05:33:20;;;;;;;40.13;23.60;;;;;;;5.60;53.00;99272.47;6275372;22;20026;-80
2022/03/26 05:35:46;;;;;;;38.95;23.10;;;;;;;5.66;52.96;99270.38;6275385;22;20020;-76
2022/03/26 05:38:12;;;;;;;39.47;21.58;;;;;;;5.70;52.89;99269.25;6249833;22;20351;-81
2022/03/26 05:40:38;;;;;;;36.83;22.15;;;;;;;5.74;52.35;99265.47;6224032;22;20019;-76
2022/03/26 05:43:05;;;;;;;72.60;40.60;;;;;;;5.89;53.16;99259.22;6275773;22;20019;-78
2022/03/26 05:45:31;;;;;;;36.45;21.05;;;;;;;6.18;53.82;99253.91;6198933;22;20035;-77
2022/03/26 05:47:59;;;;;;;37.03;20.92;;;;;;;6.41;51.61;99253.31;6198639;22;20222;-78
2022/03/26 05:50:25;;;;;;;37.30;21.87;;;;;;;6.45;50.59;99249.50;6224226;22;20054;-78
2022/03/26 05:52:51;;;;;;;34.70;20.85;;;;;;;6.52;50.91;99248.16;6223658;22;20016;-77
2022/03/26 05:55:17;;;;;;;38.28;21.85;;;;;;;6.55;50.60;99231.16;6223498;22;20015;-76
2022/03/26 05:57:43;;;;;;;31.15;21.33;;;;;;;6.61;49.22;99237.88;6275310;22;20532;-82
2022/03/26 06:00:10;;;;;;;38.85;23.40;;;;;;;6.57;49.59;99242.53;6275973;22;20023;-81
2022/03/26 06:02:37;;;;;;;36.28;22.13;;;;;;;6.23;49.66;99242.06;6275379;22;20027;-80
2022/03/26 06:05:04;;;;;;;37.20;22.33;;;;;;;5.98;50.95;99242.78;6276250;22;20015;-80
2022/03/26 06:07:31;;;;;;;37.55;22.35;;;;;;;6.28;50.79;99239.09;6249458;22;20019;-80
2022/03/26 06:09:57;;;;;;;34.38;22.63;;;;;;;6.30;50.10;99231.91;6249359;22;20046;-79
2022/03/26 06:12:23;;;;;;;37.08;23.80;;;;;;;6.37;49.79;99235.88;6249520;22;20447;-80
2022/03/26 06:14:49;;;;;;;39.72;23.50;;;;;;;6.31;49.89;99233.59;6250015;22;20023;-79
2022/03/26 06:17:15;;;;;;;36.30;23.55;;;;;;;6.43;51.63;99234.59;6276432;22;20324;-81
2022/03/26 06:19:42;;;;;;;38.35;23.25;;;;;;;6.66;50.62;99238.44;6199524;22;20389;-80
2022/03/26 06:22:08;;;;;;;38.03;24.40;;;;;;;6.70;49.16;99235.47;6276523;22;20026;-81
2022/03/26 06:24:35;;;;;;;40.72;22.88;;;;;;;6.70;49.44;99231.97;6223756;22;20094;-79
2022/03/26 06:27:01;;;;;;;32.90;21.80;;;;;;;6.78;49.18;99232.31;6276682;22;20015;-78
2022/03/26 06:29:27;;;;;;;35.00;21.58;;;;;;;6.95;49.14;99228.53;6223804;22;20028;-76
2022/03/26 06:31:53;;;;;;;33.90;19.90;;;;;;;7.06;48.91;99221.53;6248960;22;20028;-80
2022/03/26 06:34:19;;;;;;;31.10;19.98;;;;;;;7.28;48.61;99212.09;6249153;22;20023;-79
2022/03/26 06:36:45;;;;;;;29.20;17.52;;;;;;;7.37;46.83;99211.47;6248888;22;20394;-80
2022/03/26 06:39:11;;;;;;;27.25;17.55;;;;;;;7.20;46.63;99217.09;6223632;22;20296;-79
2022/03/26 06:41:40;;;;;;;37.42;19.23;;;;;;;7.23;47.37;99208.91;6208777;22;20024;-78
2022/03/26 06:44:10;;;;;;;28.70;18.90;;;;;;;7.35;47.10;99199.25;6276233;22;20046;-79
2022/03/26 06:46:37;;;;;;;30.23;18.38;;;;;;;7.52;46.90;99206.88;6275301;22;20039;-78
2022/03/26 06:49:05;;;;;;;29.13;19.95;;;;;;;7.62;47.16;99199.13;6274557;22;20016;-79
2022/03/26 06:51:33;;;;;;;28.98;19.40;;;;;;;7.45;47.31;99198.50;6249108;22;20135;-79
2022/03/26 06:54:00;;;;;;;28.92;20.02;;;;;;;7.44;46.91;99199.44;6226342;22;20011;-80
2022/03/26 06:56:25;;;;;;;36.83;23.23;;;;;;;7.59;46.21;99186.03;6283360;22;20083;-81
2022/03/26 06:58:52;;;;;;;33.00;21.67;;;;;;;7.75;46.10;99194.66;6286855;22;20028;-81
2022/03/26 07:01:18;;;;;;;39.45;20.80;;;;;;;7.60;46.24;99193.03;6256942;22;20015;-80
2022/03/26 07:03:44;;;;;;;28.08;17.73;;;;;;;7.86;46.13;99189.41;6277175;22;20066;-80
2022/03/26 07:06:12;;;;;;;24.55;18.00;;;;;;;7.84;46.03;99186.00;6247987;22;20011;-78
2022/03/26 07:08:38;;;;;;;24.17;17.05;;;;;;;8.02;45.99;99181.19;6274804;22;20462;-80
2022/03/26 07:11:04;;;;;;;26.00;15.98;;;;;;;8.09;44.99;99165.63;6247940;22;20094;-78
2022/03/26 07:13:30;;;;;;;29.98;16.10;;;;;;;8.32;44.86;99172.78;6273243;22;20020;-81
2022/03/26 07:15:56;;;;;;;32.42;16.40;;;;;;;8.48;44.71;99176.03;6274578;22;20443;-80
2022/03/26 07:18:22;;;;;;;29.23;17.38;;;;;;;8.63;43.66;99175.84;6273310;22;20016;-81
2022/03/26 07:20:48;;;;;;;28.60;16.73;;;;;;;8.41;43.67;99168.59;6273615;22;20077;-81
2022/03/26 07:23:14;;;;;;;22.55;14.80;;;;;;;8.49;43.15;99172.38;6274610;22;20455;-80
2022/03/26 07:25:40;;;;;;;26.38;14.38;;;;;;;8.70;43.26;99166.44;6272968;22;20103;-81
2022/03/26 07:28:07;;;;;;;24.48;13.70;;;;;;;8.85;42.58;99167.09;6221998;22;20035;-82
2022/03/26 07:30:33;;;;;;;25.23;14.88;;;;;;;8.84;42.80;99149.38;6272707;22;20066;-80
2022/03/26 07:33:00;;;;;;;26.08;16.85;;;;;;;8.97;42.59;99145.69;6273066;22;20391;-81
2022/03/26 07:35:26;;;;;;;34.70;16.58;;;;;;;8.93;42.72;99154.88;6248680;22;20729;-81
2022/03/26 07:37:52;;;;;;;28.48;15.45;;;;;;;9.16;42.20;99149.59;6275631;22;20039;-82
2022/03/26 07:40:17;;;;;;;31.98;16.15;;;;;;;9.23;41.12;99146.34;6263629;22;20072;-79
2022/03/26 07:42:43;;;;;;;27.95;17.95;;;;;;;9.38;41.32;99136.28;6294466;22;20019;-82
2022/03/26 07:45:10;;;;;;;27.25;17.52;;;;;;;9.42;41.36;99129.75;6252638;22;20050;-78
2022/03/26 07:47:36;;;;;;;30.13;16.80;;;;;;;9.46;40.57;99128.53;6250931;22;20016;-80
2022/03/26 07:50:04;;;;;;;44.33;18.92;;;;;;;9.42;40.86;99124.41;6226857;22;20022;-80
2022/03/26 07:52:30;;;;;;;39.72;19.42;;;;;;;9.60;40.68;99121.28;6251192;22;20318;-80
2022/03/26 07:54:56;;;;;;;35.75;20.83;;;;;;;9.56;40.52;99125.16;6277703;22;20023;-82
2022/03/26 07:57:22;;;;;;;37.28;21.98;;;;;;;9.60;40.97;99123.94;6225205;22;20098;-79
2022/03/26 07:59:47;;;;;;;34.70;18.08;;;;;;;9.45;40.77;99116.19;6277453;22;20081;-80
2022/03/26 08:02:13;;;;;;;33.83;20.55;;;;;;;9.59;41.16;99125.75;6225335;22;20065;-78
2022/03/26 08:04:39;;;;;;;32.45;21.65;;;;;;;9.78;41.12;99114.47;6277327;22;20019;-79
2022/03/26 08:07:06;;;;;;;36.00;22.83;;;;;;;9.78;40.55;99111.78;6276837;22;20085;-79
2022/03/26 08:09:32;;;;;;;36.60;23.25;;;;;;;9.60;41.14;99111.44;6277157;22;20412;-79
2022/03/26 08:11:58;;;;;;;33.17;21.50;;;;;;;9.74;41.25;99118.31;6276792;22;20015;-80
2022/03/26 08:14:24;;;;;;;40.00;22.02;;;;;;;9.97;40.86;99106.66;6249672;22;20108;-78
2022/03/26 08:16:51;;;;;;;34.08;22.80;;;;;;;10.12;40.33;99101.03;6250307;22;20016;-81
2022/03/26 08:19:19;;;;;;;36.30;22.48;;;;;;;9.95;40.29;99105.91;6250178;22;20019;-80
2022/03/26 08:21:45;;;;;;;34.63;22.30;;;;;;;9.73;40.69;99101.47;6250331;22;20015;-79
2022/03/26 08:24:12;;;;;;;30.48;21.20;;;;;;;9.77;40.34;99099.41;6224690;22;20114;-79
2022/03/26 08:26:39;;;;;;;32.72;21.23;;;;;;;9.49;40.71;99098.94;6224777;22;20396;-80
2022/03/26 08:29:05;;;;;;;31.83;19.70;;;;;;;9.54;41.04;99090.56;6249740;22;20038;-79
2022/03/26 08:31:31;;;;;;;31.17;19.98;;;;;;;9.45;40.87;99086.81;6276095;22;20015;-79
2022/03/26 08:33:58;;;;;;;29.38;20.02;;;;;;;8.77;41.47;99089.56;6224613;22;20028;-79
2022/03/26 08:36:24;;;;;;;28.80;19.77;;;;;;;8.81;42.43;99097.19;6224346;22;20115;-78
2022/03/26 08:38:51;;;;;;;29.63;19.02;;;;;;;9.11;41.79;99098.47;6199298;22;20015;-78
2022/03/26 08:41:19;;;;;;;26.52;18.52;;;;;;;9.20;41.54;99090.56;6276262;22;20189;-80
2022/03/26 08:43:50;;;;;;;27.73;18.90;;;;;;;9.43;41.32;99083.41;6250310;22;20082;-80
2022/03/26 08:46:18;;;;;;;26.70;18.33;;;;;;;9.57;40.66;99084.16;6225123;22;20016;-79
2022/03/26 08:48:45;;;;;;;29.98;19.25;;;;;;;9.48;40.54;99078.59;6200550;22;20015;-79
2022/03/26 08:51:11;;;;;;;29.45;17.85;;;;;;;9.66;40.39;99078.06;6177226;22;20020;-78
2022/03/26 08:53:38;;;;;;;29.90;18.80;;;;;;;9.60;40.72;99078.56;6278965;22;20360;-80
2022/03/26 08:56:06;;;;;;;30.10;17.70;;;;;;;9.30;41.01;99069.38;6224967;22;20024;-78
2022/03/26 08:58:33;;;;;;;39.42;17.55;;;;;;;9.30;40.83;99069.38;6276498;22;20358;-78
2022/03/26 09:01:00;;;;;;;28.95;17.73;;;;;;;9.22;41.23;99059.31;6224463;22;20024;-79
2022/03/26 09:03:26;;;;;;;28.98;17.67;;;;;;;9.36;40.96;99060.88;6224724;22;20125;-84
2022/03/26 09:05:53;;;;;;;38.00;17.75;;;;;;;9.39;40.86;99060.63;6199614;22;20111;-83
2022/03/26 09:08:19;;;;;;;23.58;16.10;;;;;;;9.35;40.55;99059.16;6250060;22;20026;-84
2022/03/26 09:10:46;;;;;;;27.23;16.77;;;;;;;9.46;40.36;99048.50;6276657;22;20455;-84
2022/03/26 09:13:12;;;;;;;27.98;17.30;;;;;;;9.54;41.01;99047.88;6277072;22;20065;-83
2022/03/26 09:15:39;;;;;;;27.63;18.23;;;;;;;9.64;40.93;99042.66;6276650;22;20015;-82
2022/03/26 09:18:05;;;;;;;25.05;15.63;;;;;;;9.65;39.98;99041.69;6277328;22;20452;-84
2022/03/26 09:20:32;;;;;;;23.85;16.25;;;;;;;9.67;39.87;99039.75;6255879;22;20042;-83
2022/03/26 09:22:58;;;;;;;22.17;15.43;;;;;;;9.65;40.08;99031.00;6229648;22;20026;-83
2022/03/26 09:25:24;;;;;;;22.15;15.27;;;;;;;9.76;39.81;99035.47;6277151;22;20090;-85
2022/03/26 09:27:51;;;;;;;24.08;16.63;;;;;;;9.74;40.04;99027.56;6276466;22;20050;-84
2022/03/26 09:30:17;;;;;;;20.92;13.98;;;;;;;9.68;39.77;99025.44;6224570;22;20390;-82
2022/03/26 09:32:44;;;;;;;20.83;13.65;;;;;;;9.80;39.27;99027.09;6277056;22;20050;-83
2022/03/26 09:35:12;;;;;;;19.30;13.18;;;;;;;9.80;39.31;99027.09;6224536;22;20020;-84
2022/03/26 09:37:38;;;;;;;21.35;13.73;;;;;;;9.72;39.72;99024.19;6224766;22;20123;-83
2022/03/26 09:40:05;;;;;;;18.80;10.98;;;;;;;9.55;38.97;99008.69;6224099;22;20094;-83
2022/03/26 09:42:33;;;;;;;13.10;9.45;;;;;;;9.52;38.89;99016.97;6261973;22;20024;-83
2022/03/26 09:44:59;;;;;;;13.73;9.13;;;;;;;9.48;39.38;99011.88;6249946;22;20015;-82
2022/03/26 09:47:25;;;;;;;12.30;7.13;;;;;;;9.46;38.73;99007.63;6276676;22;20026;-83
2022/03/26 09:49:51;;;;;;;10.75;6.07;;;;;;;9.51;38.38;99004.59;6249565;22;20020;-81
2022/03/26 09:52:17;;;;;;;12.63;5.75;;;;;;;9.49;38.33;99008.22;6274932;22;20352;-82
2022/03/26 09:54:43;;;;;;;14.02;5.55;;;;;;;9.30;38.02;99008.03;6249531;22;20016;-82
2022/03/26 09:57:09;;;;;;;10.15;4.82;;;;;;;9.26;38.71;98995.91;6249456;22;20102;-80
2022/03/26 09:59:36;;;;;;;9.40;5.00;;;;;;;9.33;38.29;99007.78;6276478;22;20061;-82
2022/03/26 10:02:02;;;;;;;9.30;5.07;;;;;;;9.46;37.42;98996.97;6249478;22;20019;-80
2022/03/26 10:04:40;;;;;;;7.28;4.53;;;;;;;9.35;37.20;99005.81;6250372;22;20015;-83
2022/03/26 10:07:07;;;;;;;8.10;4.72;;;;;;;9.27;37.80;99010.94;6274544;22;20026;-82
2022/03/26 10:09:35;;;;;;;6.75;4.57;;;;;;;8.95;37.96;99003.69;6275081;22;20019;-83
2022/03/26 10:12:11;;;;;;;7.90;5.07;;;;;;;8.88;37.99;98999.81;6275015;22;20461;-82
2022/03/26 10:14:37;;;;;;;10.10;5.03;;;;;;;9.12;38.41;98998.81;6274957;22;20096;-82
2022/03/26 10:17:13;;;;;;;5.90;4.35;;;;;;;9.09;38.35;99007.06;6275089;22;20012;-82
2022/03/26 10:19:49;;;;;;;8.13;4.72;;;;;;;9.15;38.13;98990.59;6300962;22;20019;-82
2022/03/26 10:22:50;;;;;;;13.23;5.97;;;;;;;9.03;37.84;98988.88;6276514;22;20016;-84
2022/03/26 10:25:20;;;;;;;18.70;6.63;;;;;;;9.03;38.51;98988.88;6250022;22;20019;-82
2022/03/26 10:27:46;;;;;;;;;;;;;;;8.80;38.43;98996.91;6275362;22;20043;-84
2022/03/26 10:30:14;;;;;;;5.32;3.90;;;;;;;8.79;39.12;98997.00;6275028;22;20385;-81
2022/03/26 10:32:48;;;;;;;6.00;3.90;;;;;;;8.83;38.51;98977.97;6274282;22;20091;-82
2022/03/26 10:35:15;;;;;;;4.35;3.47;;;;;;;8.79;38.71;98984.50;6249704;22;20099;-81
2022/03/26 10:38:08;;;;;;;5.97;3.95;;;;;;;8.35;39.30;98988.78;6277370;22;20019;-82
2022/03/26 10:40:38;;;;;;;6.43;3.97;;;;;;;8.46;39.30;98972.88;6221184;22;20016;-85
2022/03/26 10:43:10;;;;;;;9.18;3.88;;;;;;;8.38;39.30;98977.91;6249297;22;20024;-83
2022/03/26 10:45:48;;;;;;;5.03;4.00;;;;;;;8.18;39.44;98970.56;6249510;22;20031;-84
2022/03/26 10:48:14;;;;;;;6.65;4.22;;;;;;;8.09;39.66;98981.94;6275853;22;20019;-86
2022/03/26 10:50:40;;;;;;;5.10;4.18;;;;;;;7.95;39.92;98985.63;6300454;22;20094;-85
2022/03/26 10:53:09;;;;;;;5.15;4.30;;;;;;;7.78;40.75;98978.88;6274965;22;20023;-82
2022/03/26 10:55:39;;;;;;;4.47;3.88;;;;;;;7.69;40.39;98977.75;6274859;22;20047;-82
2022/03/26 10:58:06;;;;;;;5.10;4.10;;;;;;;7.61;41.12;98989.94;6274833;22;20023;-84
2022/03/26 11:00:36;;;;;;;8.10;4.03;;;;;;;7.57;40.99;98991.97;6276245;22;20015;-84
2022/03/26 11:03:04;;;;;;;8.60;4.10;;;;;;;7.50;41.27;98972.09;6274607;22;20023;-82
2022/03/26 11:05:31;;;;;;;7.93;4.00;;;;;;;7.51;41.25;98981.78;6300588;22;20015;-81
2022/03/26 11:07:59;;;;;;;18.77;4.88;;;;;;;7.31;41.44;98985.91;6274863;22;20090;-81
2022/03/26 11:10:25;;;;;;;6.85;4.45;;;;;;;7.31;41.88;98975.25;6250054;22;20118;-82
2022/03/26 11:12:52;;;;;;;6.82;3.97;;;;;;;7.16;41.72;98979.03;6251442;22;20023;-81
2022/03/26 11:15:31;;;;;;;6.00;4.40;;;;;;;7.01;41.79;98973.84;6250744;22;20020;-81
2022/03/26 11:18:03;;;;;;;4.88;3.85;;;;;;;6.75;41.99;98958.91;6277111;22;20016;-80
2022/03/26 11:21:10;;;;;;;6.70;4.25;;;;;;;6.66;42.22;98970.19;6250829;22;20064;-83
2022/03/26 11:24:03;;;;;;;6.72;3.90;;;;;;;6.52;42.32;98964.00;6276629;22;20069;-80
2022/03/26 11:26:38;;;;;;;4.82;3.88;;;;;;;6.28;42.57;98950.63;6251746;22;20027;-83